createdAt,value
2019-05-12T00:00:31.029Z,15.60
2019-05-12T00:02:59.506Z,15.60
2019-05-12T00:05:28.127Z,15.60
2019-05-12T00:07:58.352Z,15.60
2019-05-12T00:10:28.258Z,15.60
2019-05-12T00:12:58.263Z,15.60
2019-05-12T00:15:27.970Z,15.60
2019-05-12T00:17:58.724Z,15.60
2019-05-12T00:20:28.394Z,15.60
2019-05-12T00:22:58.689Z,15.50
2019-05-12T00:25:28.361Z,15.50
2019-05-12T00:27:58.644Z,15.50
2019-05-12T00:30:38.833Z,15.50
2019-05-12T00:33:09.310Z,15.50
2019-05-12T00:35:38.200Z,15.50
2019-05-12T00:38:09.134Z,15.60
2019-05-12T00:40:39.242Z,15.50
2019-05-12T00:43:08.961Z,15.50
2019-05-12T00:45:38.716Z,15.60
2019-05-12T00:48:09.069Z,15.40
2019-05-12T00:50:38.179Z,15.50
2019-05-12T00:53:08.940Z,15.50
2019-05-12T00:55:38.021Z,15.50
2019-05-12T00:58:08.474Z,15.50
2019-05-12T01:00:40.590Z,15.50
2019-05-12T01:03:08.688Z,15.50
2019-05-12T01:05:38.343Z,15.50
2019-05-12T01:08:09.045Z,15.50
2019-05-12T01:10:38.959Z,15.50
2019-05-12T01:13:08.526Z,15.50
2019-05-12T01:15:37.818Z,15.50
2019-05-12T01:18:09.250Z,15.50
2019-05-12T01:20:38.840Z,15.50
2019-05-12T01:23:08.540Z,15.50
2019-05-12T01:25:58.513Z,15.40
2019-05-12T01:28:27.838Z,15.40
2019-05-12T01:30:59.216Z,15.40
2019-05-12T01:33:27.774Z,15.40
2019-05-12T01:35:58.457Z,15.40
2019-05-12T01:38:28.559Z,15.40
2019-05-12T01:40:58.408Z,15.50
2019-05-12T01:43:27.773Z,15.50
2019-05-12T01:45:58.671Z,15.50
2019-05-12T01:48:28.546Z,15.40
2019-05-12T01:50:57.982Z,15.50
2019-05-12T01:53:28.527Z,15.50
2019-05-12T01:55:58.421Z,15.50
2019-05-12T01:58:27.796Z,15.50
2019-05-12T02:00:58.698Z,15.50
2019-05-12T02:03:28.405Z,15.50
2019-05-12T02:06:01.088Z,15.50
2019-05-12T02:08:41.418Z,15.50
2019-05-12T02:11:28.875Z,15.50
2019-05-12T02:13:57.973Z,15.50
2019-05-12T02:16:28.188Z,15.50
2019-05-12T02:18:58.287Z,15.50
2019-05-12T02:21:27.955Z,15.50
2019-05-12T02:23:58.297Z,15.50
2019-05-12T02:26:28.915Z,15.50
2019-05-12T02:29:08.870Z,15.60
2019-05-12T02:31:39.675Z,15.50
2019-05-12T02:34:07.299Z,15.50
2019-05-12T02:36:35.763Z,15.50
2019-05-12T02:39:06.746Z,15.60
2019-05-12T02:41:35.206Z,15.60
2019-05-12T02:44:05.407Z,15.60
2019-05-12T02:46:34.827Z,15.60
2019-05-12T02:49:04.858Z,15.60
2019-05-12T02:51:35.144Z,15.60
2019-05-12T02:54:05.530Z,15.70
2019-05-12T02:56:35.444Z,15.60
2019-05-12T02:59:05.414Z,15.60
2019-05-12T03:01:34.944Z,15.50
2019-05-12T03:04:05.750Z,15.60
2019-05-12T03:06:36.086Z,15.50
2019-05-12T03:09:07.575Z,15.40
2019-05-12T03:11:36.714Z,15.50
2019-05-12T03:14:06.137Z,15.50
2019-05-12T03:16:35.062Z,15.50
2019-05-12T03:19:04.858Z,15.50
2019-05-12T03:21:35.276Z,15.50
2019-05-12T03:24:06.066Z,15.40
2019-05-12T03:26:34.831Z,15.50
2019-05-12T03:29:05.817Z,15.50
2019-05-12T03:31:38.669Z,15.40
2019-05-12T03:34:09.829Z,15.40
2019-05-12T03:36:41.252Z,15.40
2019-05-12T03:39:06.067Z,15.30
2019-05-12T03:41:34.917Z,15.30
2019-05-12T03:44:05.159Z,15.30
2019-05-12T03:46:35.250Z,15.30
2019-05-12T03:49:05.262Z,15.30
2019-05-12T03:51:34.968Z,15.40
2019-05-12T03:54:04.716Z,15.30
2019-05-12T03:56:34.630Z,15.20
2019-05-12T03:59:05.006Z,15.20
2019-05-12T04:01:36.265Z,15.20
2019-05-12T04:04:05.128Z,15.20
2019-05-12T04:06:34.606Z,15.10
2019-05-12T04:09:08.230Z,15.00
2019-05-12T04:11:36.951Z,14.90
2019-05-12T04:14:05.965Z,14.90
2019-05-12T04:16:36.378Z,14.80
2019-05-12T04:19:05.599Z,14.80
2019-05-12T04:21:35.347Z,14.80
2019-05-12T04:24:05.447Z,14.90
2019-05-12T04:26:36.261Z,14.90
2019-05-12T04:29:05.130Z,15.00
2019-05-12T04:31:35.546Z,15.00
2019-05-12T04:34:05.191Z,14.90
2019-05-12T04:36:35.557Z,14.90
2019-05-12T04:39:06.712Z,14.90
2019-05-12T04:41:36.512Z,14.90
2019-05-12T04:44:06.054Z,15.00
2019-05-12T04:46:34.928Z,14.90
2019-05-12T04:49:05.207Z,15.00
2019-05-12T04:51:34.994Z,15.00
2019-05-12T04:54:05.843Z,15.00
2019-05-12T04:56:35.769Z,15.00
2019-05-12T04:59:04.964Z,15.00
2019-05-12T05:01:34.918Z,15.00
2019-05-12T05:04:05.494Z,15.10
2019-05-12T05:06:34.316Z,15.00
2019-05-12T05:09:05.162Z,14.90
2019-05-12T05:11:34.522Z,14.90
2019-05-12T05:14:04.270Z,14.90
2019-05-12T05:16:34.592Z,14.80
2019-05-12T05:19:03.683Z,14.80
2019-05-12T05:21:34.262Z,14.80
2019-05-12T05:24:03.812Z,14.80
2019-05-12T05:26:36.597Z,14.80
2019-05-12T05:29:04.350Z,14.80
2019-05-12T05:31:33.658Z,14.80
2019-05-12T05:34:04.679Z,14.80
2019-05-12T05:36:34.536Z,14.80
2019-05-12T05:39:04.497Z,14.70
2019-05-12T05:41:34.511Z,14.70
2019-05-12T05:44:03.218Z,14.70
2019-05-12T05:46:33.701Z,14.80
2019-05-12T05:49:04.063Z,14.80
2019-05-12T05:51:33.476Z,14.80
2019-05-12T05:54:03.975Z,14.80
2019-05-12T05:56:41.817Z,14.90
2019-05-12T05:59:04.522Z,14.90
2019-05-12T06:01:34.497Z,14.90
2019-05-12T06:04:04.442Z,14.90
2019-05-12T06:06:34.158Z,14.90
2019-05-12T06:09:04.064Z,15.00
2019-05-12T06:11:34.467Z,15.10
2019-05-12T06:14:11.076Z,15.10
2019-05-12T06:16:34.086Z,15.20
2019-05-12T06:19:03.468Z,15.20
2019-05-12T06:21:36.399Z,15.20
2019-05-12T06:24:03.558Z,15.30
2019-05-12T06:26:34.927Z,15.30
2019-05-12T06:29:04.238Z,15.30
2019-05-12T06:31:33.430Z,15.40
2019-05-12T06:34:06.411Z,15.40
2019-05-12T06:36:33.993Z,15.50
2019-05-12T06:39:04.265Z,15.60
2019-05-12T06:41:33.692Z,15.50
2019-05-12T06:44:03.719Z,15.50
2019-05-12T06:46:34.286Z,15.60
2019-05-12T06:49:10.203Z,15.60
2019-05-12T06:51:33.807Z,15.70
2019-05-12T06:54:10.016Z,15.80
2019-05-12T06:56:34.247Z,15.80
2019-05-12T06:59:09.741Z,15.80
2019-05-12T07:01:34.632Z,15.80
2019-05-12T07:04:06.695Z,15.90
2019-05-12T07:06:33.896Z,15.90
2019-05-12T07:09:09.207Z,16.00
2019-05-12T07:11:42.456Z,15.90
2019-05-12T07:14:07.766Z,15.90
2019-05-12T07:16:46.534Z,15.90
2019-05-12T07:19:21.220Z,16.00
2019-05-12T07:21:45.058Z,16.00
2019-05-12T07:24:14.220Z,16.00
2019-05-12T07:26:44.238Z,16.00
2019-05-12T07:29:13.407Z,16.00
2019-05-12T07:31:44.108Z,16.10
2019-05-12T07:34:13.669Z,16.10
2019-05-12T07:36:44.177Z,16.10
2019-05-12T07:39:13.610Z,16.20
2019-05-12T07:41:50.606Z,16.10
2019-05-12T07:44:14.226Z,16.20
2019-05-12T07:46:45.714Z,16.10
2019-05-12T07:49:14.161Z,16.20
2019-05-12T07:51:44.680Z,16.10
2019-05-12T07:54:14.244Z,16.20
2019-05-12T07:56:44.164Z,16.20
2019-05-12T07:59:13.582Z,16.20
2019-05-12T08:01:48.167Z,16.20
2019-05-12T08:04:13.515Z,16.30
2019-05-12T08:06:46.785Z,16.30
2019-05-12T08:09:13.668Z,16.30
2019-05-12T08:11:43.416Z,16.20
2019-05-12T08:14:22.046Z,16.30
2019-05-12T08:16:43.697Z,16.30
2019-05-12T08:19:17.240Z,16.40
2019-05-12T08:21:43.901Z,16.40
2019-05-12T08:24:14.173Z,16.40
2019-05-12T08:26:43.549Z,16.40
2019-05-12T08:29:16.995Z,16.30
2019-05-12T08:31:44.094Z,16.30
2019-05-12T08:34:13.670Z,16.30
2019-05-12T08:36:45.043Z,16.30
2019-05-12T08:39:21.280Z,16.30
2019-05-12T08:41:44.251Z,16.30
2019-05-12T08:44:13.512Z,16.40
2019-05-12T08:46:43.129Z,16.40
2019-05-12T08:49:14.235Z,16.40
2019-05-12T08:51:44.251Z,16.40
2019-05-12T08:54:14.193Z,16.50
2019-05-12T08:56:43.623Z,16.50
2019-05-12T08:59:17.558Z,16.60
2019-05-12T09:01:43.858Z,16.60
2019-05-12T09:04:17.999Z,16.70
2019-05-12T09:06:43.440Z,16.80
2019-05-12T09:09:13.854Z,16.90
2019-05-12T09:11:43.899Z,16.90
2019-05-12T09:14:14.446Z,16.90
2019-05-12T09:16:44.000Z,17.00
2019-05-12T09:19:16.675Z,17.10
2019-05-12T09:21:44.270Z,17.10
2019-05-12T09:24:15.573Z,17.10
2019-05-12T09:26:43.393Z,17.20
2019-05-12T09:29:13.832Z,17.30
2019-05-12T09:31:43.932Z,17.30
2019-05-12T09:34:15.908Z,17.30
2019-05-12T09:36:44.095Z,17.40
2019-05-12T09:39:14.137Z,17.40
2019-05-12T09:41:48.582Z,17.50
2019-05-12T09:44:14.049Z,17.50
2019-05-12T09:46:44.055Z,17.60
2019-05-12T09:49:14.263Z,17.60
2019-05-12T09:51:45.232Z,17.60
2019-05-12T09:54:13.916Z,17.60
2019-05-12T09:56:44.137Z,17.50
2019-05-12T09:59:20.840Z,17.50
2019-05-12T10:01:45.732Z,17.50
2019-05-12T10:04:16.182Z,17.50
2019-05-12T10:06:44.428Z,17.60
2019-05-12T10:09:15.613Z,17.60
2019-05-12T10:11:44.709Z,17.60
2019-05-12T10:14:13.962Z,17.60
2019-05-12T10:16:45.600Z,17.60
2019-05-12T10:19:14.671Z,17.60
2019-05-12T10:21:43.995Z,17.60
2019-05-12T10:24:12.456Z,17.70
2019-05-12T10:26:41.074Z,17.70
2019-05-12T10:29:18.791Z,17.70
2019-05-12T10:31:41.063Z,17.70
2019-05-12T10:34:23.967Z,17.70
2019-05-12T10:36:53.849Z,17.70
2019-05-12T10:39:24.103Z,17.70
2019-05-12T10:41:53.952Z,17.60
2019-05-12T10:44:22.032Z,17.70
2019-05-12T10:46:53.799Z,17.70
2019-05-12T10:49:23.334Z,17.70
2019-05-12T10:51:53.801Z,17.70
2019-05-12T10:54:23.952Z,17.60
2019-05-12T10:56:54.470Z,17.60
2019-05-12T10:59:32.402Z,17.40
2019-05-12T11:01:53.938Z,17.40
2019-05-12T11:04:33.265Z,17.40
2019-05-12T11:06:53.790Z,17.40
2019-05-12T11:09:29.428Z,17.50
2019-05-12T11:11:54.086Z,17.40
2019-05-12T11:14:26.563Z,17.50
2019-05-12T11:16:54.243Z,17.50
2019-05-12T11:19:22.641Z,17.40
2019-05-12T11:21:53.435Z,17.50
2019-05-12T11:24:21.147Z,17.60
2019-05-12T11:26:49.475Z,17.70
2019-05-12T11:29:17.801Z,17.70
2019-05-12T11:31:46.414Z,17.80
2019-05-12T11:34:14.737Z,17.80
2019-05-12T11:36:43.766Z,17.90
2019-05-12T11:39:14.122Z,17.90
2019-05-12T11:41:44.244Z,18.00
2019-05-12T11:44:13.204Z,18.00
2019-05-12T11:46:44.084Z,18.10
2019-05-12T11:49:13.734Z,18.10
2019-05-12T11:51:41.716Z,18.10
2019-05-12T11:54:10.913Z,18.10
2019-05-12T11:56:40.408Z,18.10
2019-05-12T11:59:09.999Z,18.10
2019-05-12T12:01:39.692Z,18.10
2019-05-12T12:04:08.413Z,18.10
2019-05-12T12:06:36.820Z,18.20
2019-05-12T12:09:09.276Z,18.20
2019-05-12T12:11:37.126Z,18.30
2019-05-12T12:14:10.555Z,18.30
2019-05-12T12:16:44.280Z,18.40
2019-05-12T12:19:06.655Z,18.40
2019-05-12T12:21:35.281Z,18.40
2019-05-12T12:24:05.246Z,18.40
2019-05-12T12:26:37.030Z,18.50
2019-05-12T12:29:03.662Z,18.50
2019-05-12T12:31:37.233Z,18.50
2019-05-12T12:34:03.768Z,18.50
2019-05-12T12:36:34.025Z,18.60
2019-05-12T12:39:04.096Z,18.60
2019-05-12T12:41:34.052Z,18.60
2019-05-12T12:44:04.453Z,18.70
2019-05-12T12:46:33.791Z,18.80
2019-05-12T12:49:06.512Z,18.90
2019-05-12T12:51:34.231Z,18.90
2019-05-12T12:54:03.271Z,18.90
2019-05-12T12:56:33.974Z,18.90
2019-05-12T12:59:10.108Z,19.00
2019-05-12T13:01:33.516Z,18.80
2019-05-12T13:04:04.690Z,18.80
2019-05-12T13:06:34.406Z,18.70
2019-05-12T13:09:08.050Z,18.70
2019-05-12T13:11:34.811Z,18.60
2019-05-12T13:14:04.117Z,18.60
2019-05-12T13:16:34.198Z,18.60
2019-05-12T13:19:03.844Z,18.50
2019-05-12T13:21:33.623Z,18.50
2019-05-12T13:24:03.638Z,18.40
2019-05-12T13:26:32.157Z,18.40
2019-05-12T13:29:00.590Z,18.30
2019-05-12T13:31:29.021Z,18.10
2019-05-12T13:33:57.376Z,18.10
2019-05-12T13:36:29.609Z,18.10
2019-05-12T13:38:55.847Z,18.10
2019-05-12T13:41:24.140Z,18.00
2019-05-12T13:43:55.945Z,17.90
2019-05-12T13:46:23.891Z,18.00
2019-05-12T13:48:57.693Z,18.10
2019-05-12T13:51:24.153Z,18.10
2019-05-12T13:53:52.849Z,18.10
2019-05-12T13:56:25.336Z,18.20
2019-05-12T13:58:53.545Z,18.20
2019-05-12T14:01:21.326Z,18.20
2019-05-12T14:03:50.871Z,18.20
2019-05-12T14:06:23.227Z,18.10
2019-05-12T14:08:49.812Z,18.10
2019-05-12T14:11:18.932Z,18.00
2019-05-12T14:13:48.531Z,18.00
2019-05-12T14:16:16.946Z,18.10
2019-05-12T14:18:45.435Z,18.00
2019-05-12T14:21:14.136Z,18.10
2019-05-12T14:23:43.623Z,18.00
2019-05-12T14:26:13.667Z,18.00
2019-05-12T14:28:45.622Z,18.00
2019-05-12T14:31:24.472Z,18.00
2019-05-12T14:33:44.233Z,18.00
2019-05-12T14:36:13.705Z,18.00
2019-05-12T14:38:42.924Z,18.00
2019-05-12T14:41:12.328Z,18.00
2019-05-12T14:43:41.361Z,18.00
2019-05-12T14:46:10.514Z,18.00
2019-05-12T14:48:40.140Z,18.00
2019-05-12T14:51:09.278Z,18.00
2019-05-12T14:53:38.529Z,18.00
2019-05-12T14:56:09.629Z,18.00
2019-05-12T14:58:37.971Z,18.00
2019-05-12T15:01:06.423Z,18.00
2019-05-12T15:03:34.833Z,18.10
2019-05-12T15:06:03.809Z,18.10
2019-05-12T15:08:37.020Z,18.10
2019-05-12T15:11:03.986Z,18.20
2019-05-12T15:13:34.289Z,18.20
2019-05-12T15:16:02.729Z,18.20
2019-05-12T15:18:31.124Z,18.30
2019-05-12T15:20:59.468Z,18.30
2019-05-12T15:23:32.347Z,18.30
2019-05-12T15:25:57.946Z,18.40
2019-05-12T15:28:26.336Z,18.40
2019-05-12T15:30:54.702Z,18.40
2019-05-12T15:33:24.356Z,18.50
2019-05-12T15:35:54.631Z,18.50
2019-05-12T15:38:23.945Z,18.50
2019-05-12T15:40:53.756Z,18.50
2019-05-12T15:43:24.455Z,18.40
2019-05-12T15:45:57.410Z,18.50
2019-05-12T15:48:25.678Z,18.50
2019-05-12T15:50:54.014Z,18.50
2019-05-12T15:53:26.704Z,18.50
2019-05-12T15:55:54.294Z,18.40
2019-05-12T15:58:24.702Z,18.50
2019-05-12T16:00:54.429Z,18.50
2019-05-12T16:03:23.627Z,18.50
2019-05-12T16:05:53.474Z,18.60
2019-05-12T16:08:24.300Z,18.60
2019-05-12T16:10:53.577Z,18.70
2019-05-12T16:13:24.144Z,18.70
2019-05-12T16:15:57.571Z,18.60
2019-05-12T16:18:23.493Z,18.60
2019-05-12T16:20:53.566Z,18.60
2019-05-12T16:23:24.993Z,18.50
2019-05-12T16:25:54.129Z,18.40
2019-05-12T16:28:25.929Z,18.40
2019-05-12T16:30:53.622Z,18.30
2019-05-12T16:33:22.134Z,18.20
2019-05-12T16:35:50.567Z,18.20
2019-05-12T16:38:20.209Z,18.10
2019-05-12T16:40:49.932Z,18.10
2019-05-12T16:43:18.624Z,18.10
2019-05-12T16:45:47.132Z,18.00
2019-05-12T16:48:29.490Z,18.00
2019-05-12T16:50:45.664Z,18.00
2019-05-12T16:53:21.669Z,17.90
2019-05-12T16:55:48.096Z,17.90
2019-05-12T16:58:14.218Z,17.90
2019-05-12T17:00:45.286Z,17.80
2019-05-12T17:03:14.512Z,17.80
2019-05-12T17:05:42.947Z,17.80
2019-05-12T17:08:13.942Z,17.70
2019-05-12T17:10:49.069Z,17.70
2019-05-12T17:13:13.736Z,17.70
2019-05-12T17:15:43.305Z,17.70
2019-05-12T17:18:13.573Z,17.70
2019-05-12T17:20:49.313Z,17.60
2019-05-12T17:23:13.853Z,17.60
2019-05-12T17:25:42.084Z,17.60
2019-05-12T17:28:10.520Z,17.50
2019-05-12T17:30:38.943Z,17.50
2019-05-12T17:33:07.519Z,17.50
2019-05-12T17:35:35.944Z,17.50
2019-05-12T17:38:04.556Z,17.40
2019-05-12T17:40:33.857Z,17.40
2019-05-12T17:43:06.792Z,17.30
2019-05-12T17:45:32.756Z,17.30
2019-05-12T17:48:06.793Z,17.30
2019-05-12T17:50:34.440Z,17.30
2019-05-12T17:53:04.465Z,17.20
2019-05-12T17:55:32.617Z,17.20
2019-05-12T17:58:03.958Z,17.10
2019-05-12T18:00:33.598Z,17.00
2019-05-12T18:03:15.644Z,17.10
2019-05-12T18:05:33.878Z,17.00
2019-05-12T18:08:04.356Z,17.00
2019-05-12T18:10:37.784Z,17.00
2019-05-12T18:13:03.880Z,17.00
2019-05-12T18:15:37.528Z,17.00
2019-05-12T18:18:04.106Z,16.90
2019-05-12T18:20:40.022Z,16.90
2019-05-12T18:23:04.339Z,16.90
2019-05-12T18:25:32.890Z,16.90
2019-05-12T18:28:03.587Z,16.80
2019-05-12T18:30:31.349Z,16.80
2019-05-12T18:33:04.282Z,16.80
2019-05-12T18:35:29.854Z,16.80
2019-05-12T18:37:58.296Z,16.80
2019-05-12T18:40:28.188Z,16.70
2019-05-12T18:42:56.827Z,16.70
2019-05-12T18:45:25.373Z,16.70
2019-05-12T18:47:53.969Z,16.60
2019-05-12T18:50:29.283Z,16.60
2019-05-12T18:52:52.484Z,16.60
2019-05-12T18:55:20.784Z,16.60
2019-05-12T18:57:50.102Z,16.60
2019-05-12T19:00:20.343Z,16.70
2019-05-12T19:02:51.040Z,16.60
2019-05-12T19:05:29.710Z,16.60
2019-05-12T19:07:50.621Z,16.50
2019-05-12T19:10:18.961Z,16.50
2019-05-12T19:12:51.608Z,16.40
2019-05-12T19:15:21.892Z,16.40
2019-05-12T19:17:47.599Z,16.30
2019-05-12T19:20:19.117Z,16.40
2019-05-12T19:22:56.139Z,16.40
2019-05-12T19:25:19.213Z,16.30
2019-05-12T19:27:49.665Z,16.30
2019-05-12T19:30:19.429Z,16.30
2019-05-12T19:32:46.312Z,16.20
2019-05-12T19:35:19.902Z,16.20
2019-05-12T19:37:45.339Z,16.20
2019-05-12T19:40:17.107Z,16.20
2019-05-12T19:42:44.036Z,16.20
2019-05-12T19:45:21.276Z,16.10
2019-05-12T19:47:44.278Z,16.10
2019-05-12T19:50:18.225Z,16.10
2019-05-12T19:52:43.463Z,16.10
2019-05-12T19:55:13.924Z,16.10
2019-05-12T19:57:44.270Z,16.10
2019-05-12T20:00:13.830Z,16.00
2019-05-12T20:02:42.633Z,16.00
2019-05-12T20:05:14.271Z,16.10
2019-05-12T20:07:41.182Z,16.10
2019-05-12T20:10:12.804Z,16.00
2019-05-12T20:12:40.147Z,16.00
2019-05-12T20:15:08.707Z,15.90
2019-05-12T20:17:37.083Z,15.90
2019-05-12T20:20:05.511Z,15.80
2019-05-12T20:22:33.895Z,15.80
2019-05-12T20:25:04.270Z,15.80
2019-05-12T20:27:34.524Z,15.70
2019-05-12T20:30:08.994Z,15.60
2019-05-12T20:32:34.415Z,15.60
2019-05-12T20:35:22.396Z,15.60
2019-05-12T20:37:56.926Z,15.60
2019-05-12T20:40:20.874Z,15.50
2019-05-12T20:43:07.310Z,15.50
2019-05-12T20:45:23.563Z,15.50
2019-05-12T20:47:50.524Z,15.50
2019-05-12T20:50:24.180Z,15.50
2019-05-12T20:52:53.487Z,15.40
2019-05-12T20:55:19.128Z,15.30
2019-05-12T20:57:56.075Z,15.20
2019-05-12T21:00:17.727Z,15.20
2019-05-12T21:02:46.057Z,15.20
2019-05-12T21:05:19.864Z,15.20
2019-05-12T21:07:44.630Z,15.20
2019-05-12T21:10:14.794Z,15.10
2019-05-12T21:12:50.047Z,15.20
2019-05-12T21:15:20.719Z,15.20
2019-05-12T21:17:58.394Z,15.20
2019-05-12T21:20:18.847Z,15.20
2019-05-12T21:22:47.378Z,15.20
2019-05-12T21:25:15.782Z,15.30
2019-05-12T21:27:47.612Z,15.30
2019-05-12T21:30:15.955Z,15.30
2019-05-12T21:32:47.077Z,15.30
2019-05-12T21:35:21.781Z,15.20
2019-05-12T21:37:46.261Z,15.10
2019-05-12T21:40:15.027Z,15.10
2019-05-12T21:42:44.710Z,15.10
2019-05-12T21:45:14.617Z,15.20
2019-05-12T21:47:44.595Z,15.00
2019-05-12T21:50:14.035Z,15.00
2019-05-12T21:52:44.547Z,15.00
2019-05-12T21:55:21.266Z,15.10
2019-05-12T21:57:43.713Z,15.10
2019-05-12T22:00:34.117Z,15.00
2019-05-12T22:03:08.175Z,15.00
2019-05-12T22:05:48.054Z,15.00
2019-05-12T22:08:06.412Z,15.00
2019-05-12T22:10:34.446Z,15.00
2019-05-12T22:13:06.861Z,15.00
2019-05-12T22:15:34.107Z,14.90
2019-05-12T22:18:04.797Z,14.90
2019-05-12T22:20:35.597Z,14.90
2019-05-12T22:23:09.101Z,14.90
2019-05-12T22:25:34.631Z,15.00
2019-05-12T22:28:07.806Z,14.90
2019-05-12T22:30:34.891Z,15.00
2019-05-12T22:33:08.306Z,15.00
2019-05-12T22:35:33.648Z,15.00
2019-05-12T22:38:09.143Z,15.10
2019-05-12T22:40:32.316Z,15.10
2019-05-12T22:43:01.459Z,15.00
2019-05-12T22:45:36.047Z,15.00
2019-05-12T22:48:00.877Z,15.00
2019-05-12T22:50:32.978Z,15.00
2019-05-12T22:52:59.378Z,14.90
2019-05-12T22:55:32.548Z,14.90
2019-05-12T22:57:57.925Z,15.00
2019-05-12T23:00:26.321Z,15.00
2019-05-12T23:02:54.773Z,15.10
2019-05-12T23:05:24.168Z,15.10
2019-05-12T23:07:54.431Z,15.00
2019-05-12T23:10:22.724Z,14.90
2019-05-12T23:12:56.977Z,14.90
2019-05-12T23:15:21.114Z,14.90
2019-05-12T23:17:49.591Z,15.00
2019-05-12T23:20:18.030Z,15.10
2019-05-12T23:22:47.033Z,15.10
2019-05-12T23:25:20.058Z,14.90
2019-05-12T23:27:46.834Z,14.80
2019-05-12T23:30:15.866Z,14.70
2019-05-12T23:32:51.526Z,14.70
2019-05-12T23:35:14.600Z,14.80
2019-05-12T23:37:44.095Z,14.80
2019-05-12T23:40:16.412Z,14.90
2019-05-12T23:42:44.585Z,14.90
2019-05-12T23:45:14.008Z,14.90
2019-05-12T23:47:43.991Z,14.90
2019-05-12T23:50:14.280Z,14.90
2019-05-12T23:52:44.121Z,15.00
2019-05-12T23:55:13.693Z,15.00
2019-05-12T23:57:44.391Z,15.10
